首页
METAR-TAF:

METAR-TAF

机场 :

Eppley Airfield

奥马哈, 內布拉斯加州, 美国

纬度: 41-18-37N, 经度: 095-53-57W, 海拔: 299米

当前天气观测

该预报发布于16分钟前的23:52 UTC
风速12节,风向西南,有时为19节阵风
温度 28°C
湿度 35%
气压 1007 hPa
能見度: 16.1公里
少量云层高于6000英尺
少量云层高于25000英尺

METAR: KOMA 242352Z 23012G19KT 10SM FEW060 FEW250 28/11 A2975 RMK AO2 SLP068 CB DSNT N MOV SE T02780111 10283 20250 56001

时间: 19:08 (00:08 UTC)

预报

该预报发布于40分钟前的23:28 UTC
预报有效从25日的 00点(UTC)到 25日的 24点(UTC)
风速7节,风向西转西南
能見度: 10公里
天空无云
从 25日的 0700点(UTC)
风速7节,风向西转西南
能見度: 10公里
多云层高于12000英尺, 积雨云.
附近有雷暴
从 25日的 1000点(UTC)
风速7节,风向西转西南
能見度: 10公里
散云层高于15000英尺
从 25日的 1400点(UTC)
风速10节,风向
能見度: 10公里
散云层高于15000英尺
从 25日的 1800点(UTC)
风速15节,风向北转西北
能見度: 10公里
天空无云

TAF: KOMA 242328Z 2500/2524 25007KT P6SM SKC FM250700 25007KT P6SM VCTS BKN120CB FM251000 25007KT P6SM SCT150 WS020/19045KT FM251400 19010KT P6SM SCT150 FM251800 34015KT P6SM SKC

超过4000个机场的气象观测和天气预报(METAR&TAF报告)。

可查询的气象台以黄色和红色小点在地图上表示。

将鼠标移到小点上方,可查看气象台名称。

然后点击查看天气观测和预报。

如需切换地图:点击带黑十字的绿色按钮放大地图;点击带横线的绿色按钮缩小地图;或者点击绿色箭头查看邻近地区的地图。


METAR-TAF: